Time;durP1;ratioP1;P1;durP2;ratioP2;P2;SDS_P1;SDS_P2;PMS_P1;PMS_P2;Temp;Humidity;BMP_temperature;BMP_pressure;BME280_temperature;BME280_humidity;BME280_pressure;Samples;Min_cycle;Max_cycle;Signal;HPM_P1;HPM_P2
2022/08/05 00:02:17;;;;;;;6.13;3.17;;;;;;;23.57;69.74;100612.63;5024653;28;20198;-70
2022/08/05 00:04:44;;;;;;;5.90;3.00;;;;;;;23.52;69.41;100615.88;5021609;28;20226;-71
2022/08/05 00:07:11;;;;;;;3.00;2.70;;;;;;;23.47;69.46;100599.22;5023279;28;20203;-71
2022/08/05 00:09:39;;;;;;;3.58;3.13;;;;;;;23.42;69.65;100569.03;5020273;28;20206;-70
2022/08/05 00:12:06;;;;;;;5.97;2.78;;;;;;;23.37;69.80;100571.44;5031619;28;20214;-70
2022/08/05 00:14:32;;;;;;;3.63;2.70;;;;;;;23.32;69.68;100561.13;5032429;28;20209;-71
2022/08/05 00:16:59;;;;;;;3.35;3.05;;;;;;;23.26;69.74;100552.88;5026434;28;20291;-71
2022/08/05 00:19:26;;;;;;;4.15;2.80;;;;;;;23.16;69.44;100555.81;5031485;28;20198;-71
2022/08/05 00:21:52;;;;;;;4.78;3.08;;;;;;;23.07;69.36;100557.75;5021322;28;20206;-70
2022/08/05 00:24:19;;;;;;;4.88;3.08;;;;;;;22.98;69.51;100576.97;5027570;28;20320;-76
2022/08/05 00:26:47;;;;;;;5.78;3.30;;;;;;;22.89;69.74;100594.38;5026626;28;20588;-71
2022/08/05 00:29:13;;;;;;;5.72;3.47;;;;;;;22.82;69.67;100614.06;5026484;28;20216;-73
2022/08/05 00:31:40;;;;;;;6.57;3.40;;;;;;;22.77;70.09;100635.47;5018151;28;20211;-71
2022/08/05 00:34:06;;;;;;;5.70;3.60;;;;;;;22.74;70.26;100637.69;5024999;28;20232;-71
2022/08/05 00:36:33;;;;;;;7.65;4.13;;;;;;;22.71;69.98;100644.31;5024956;28;20221;-71
2022/08/05 00:38:59;;;;;;;7.65;3.22;;;;;;;22.66;70.37;100643.97;5028243;28;20732;-70
2022/08/05 00:41:30;;;;;;;3.60;3.17;;;;;;;22.63;70.31;100643.47;5032580;28;20209;-70
2022/08/05 00:43:58;;;;;;;8.07;3.50;;;;;;;22.56;70.39;100648.78;5027596;28;20221;-72
2022/08/05 00:46:24;;;;;;;7.32;3.90;;;;;;;22.49;70.40;100656.75;5026712;28;20205;-70
2022/08/05 00:48:52;;;;;;;5.43;3.63;;;;;;;22.44;70.58;100651.00;5030818;28;20208;-72
2022/08/05 00:51:19;;;;;;;8.50;4.28;;;;;;;22.39;70.72;100647.13;5029296;28;20206;-71
2022/08/05 00:53:46;;;;;;;10.77;5.40;;;;;;;22.32;70.72;100641.53;5025276;28;20237;-70
2022/08/05 00:56:15;;;;;;;7.40;5.50;;;;;;;22.25;71.13;100656.81;5034651;28;20213;-72
2022/08/05 00:58:42;;;;;;;9.13;5.53;;;;;;;22.19;71.50;100656.66;5027024;28;20232;-71
2022/08/05 01:01:10;;;;;;;9.43;6.20;;;;;;;22.16;71.76;100649.72;5029624;28;20638;-71
2022/08/05 01:03:37;;;;;;;8.57;6.07;;;;;;;22.10;71.75;100634.97;5028031;28;20713;-71
2022/08/05 01:06:04;;;;;;;11.38;5.72;;;;;;;22.07;72.16;100632.59;5028192;28;20599;-68
2022/08/05 01:08:31;;;;;;;9.27;6.50;;;;;;;22.02;72.60;100628.72;5030512;28;20220;-70
2022/08/05 01:11:00;;;;;;;12.40;7.20;;;;;;;21.97;72.80;100629.19;5031968;28;20218;-69
2022/08/05 01:13:33;;;;;;;10.97;6.67;;;;;;;21.93;72.89;100619.72;5026660;28;20250;-69
2022/08/05 01:16:04;;;;;;;16.85;7.75;;;;;;;21.89;73.09;100623.78;5024973;28;20313;-69
2022/08/05 01:18:39;;;;;;;11.63;7.30;;;;;;;21.86;73.36;100617.84;5027106;28;20201;-70
2022/08/05 01:21:18;;;;;;;12.63;7.80;;;;;;;21.81;73.79;100611.09;5026475;28;20292;-70
2022/08/05 01:24:01;;;;;;;16.37;8.90;;;;;;;21.78;73.92;100610.56;5028934;28;20235;-70
2022/08/05 01:26:40;;;;;;;12.63;8.32;;;;;;;21.75;73.88;100610.91;5030799;28;20741;-70
2022/08/05 01:29:13;;;;;;;14.23;8.87;;;;;;;21.72;74.21;100611.25;5030505;28;20295;-69
2022/08/05 01:31:45;;;;;;;14.03;8.83;;;;;;;21.68;74.17;100609.88;5025596;28;20204;-70
2022/08/05 01:34:15;;;;;;;13.83;8.63;;;;;;;21.63;74.37;100615.84;5026901;28;20245;-70
2022/08/05 01:36:46;;;;;;;14.73;8.83;;;;;;;21.59;74.74;100628.03;5024312;28;20681;-70
2022/08/05 01:39:15;;;;;;;15.13;8.50;;;;;;;21.56;74.82;100622.09;5023203;28;20599;-69
2022/08/05 01:41:43;;;;;;;14.57;8.53;;;;;;;21.52;75.22;100618.00;5026513;28;20288;-70
2022/08/05 01:44:13;;;;;;;12.70;8.23;;;;;;;21.50;75.40;100614.66;5020391;28;20246;-69
2022/08/05 01:46:41;;;;;;;14.30;8.00;;;;;;;21.47;75.48;100613.97;5030360;28;20579;-72
2022/08/05 01:49:12;;;;;;;13.53;8.53;;;;;;;21.43;75.61;100609.91;5025949;28;20621;-72
2022/08/05 01:51:40;;;;;;;16.03;9.27;;;;;;;21.40;75.99;100618.34;5018418;28;20216;-71
2022/08/05 01:54:09;;;;;;;15.80;9.67;;;;;;;21.37;76.08;100624.09;5027697;28;20308;-70
2022/08/05 01:56:41;;;;;;;15.97;8.77;;;;;;;21.34;76.31;100620.88;5028662;28;20217;-71
2022/08/05 01:59:10;;;;;;;13.47;8.50;;;;;;;21.29;76.45;100621.41;5026914;28;20213;-72
2022/08/05 02:01:40;;;;;;;15.03;9.53;;;;;;;21.27;76.89;100603.63;5029790;28;20198;-72
2022/08/05 02:04:09;;;;;;;13.03;8.37;;;;;;;21.25;76.80;100597.50;5032219;28;20713;-71
2022/08/05 02:06:36;;;;;;;16.47;9.27;;;;;;;21.21;76.88;100593.44;5026965;28;20236;-72
2022/08/05 02:09:05;;;;;;;14.83;9.20;;;;;;;21.19;77.21;100585.44;5029419;28;20208;-71
2022/08/05 02:11:40;;;;;;;17.90;9.53;;;;;;;21.18;77.36;100585.59;5028213;28;20239;-71
2022/08/05 02:14:12;;;;;;;19.13;11.40;;;;;;;21.17;77.55;100595.59;5030265;28;20748;-72
2022/08/05 02:16:46;;;;;;;19.83;11.50;;;;;;;21.13;77.52;100621.34;5028312;28;20208;-72
2022/08/05 02:19:20;;;;;;;16.40;10.40;;;;;;;21.11;77.82;100629.63;5024409;28;20259;-75
2022/08/05 02:21:52;;;;;;;16.40;9.70;;;;;;;21.08;77.76;100615.56;5034348;28;20210;-71
2022/08/05 02:24:22;;;;;;;14.80;9.50;;;;;;;21.05;77.85;100610.47;5031316;28;20230;-71
2022/08/05 02:26:52;;;;;;;15.27;10.17;;;;;;;21.02;78.16;100594.56;5025998;28;20211;-73
2022/08/05 02:29:22;;;;;;;17.40;10.73;;;;;;;21.01;78.36;100587.44;5024673;28;20646;-72
2022/08/05 02:31:51;;;;;;;19.60;11.40;;;;;;;21.00;78.64;100583.03;5022282;28;20631;-71
2022/08/05 02:34:20;;;;;;;20.37;10.70;;;;;;;21.01;78.51;100609.09;5024404;28;20294;-74
2022/08/05 02:36:50;;;;;;;13.67;10.30;;;;;;;21.01;78.48;100655.13;5022689;28;20207;-72
2022/08/05 02:39:19;;;;;;;21.13;11.10;;;;;;;21.00;78.63;100677.81;5023257;28;20273;-73
2022/08/05 02:41:47;;;;;;;17.33;10.80;;;;;;;20.98;78.67;100685.25;5028320;28;20199;-73
2022/08/05 02:44:15;;;;;;;17.60;10.27;;;;;;;20.95;78.80;100672.91;5028686;28;20728;-71
2022/08/05 02:46:44;;;;;;;25.37;12.43;;;;;;;20.92;79.18;100623.66;5033486;28;20631;-69
2022/08/05 02:49:14;;;;;;;26.77;12.80;;;;;;;20.89;79.33;100567.97;5025521;28;20229;-69
2022/08/05 02:51:42;;;;;;;20.33;13.40;;;;;;;20.86;79.57;100513.31;5029447;28;20210;-67
2022/08/05 02:54:10;;;;;;;24.00;13.43;;;;;;;20.79;80.15;100483.34;5022053;28;20260;-68
2022/08/05 02:56:38;;;;;;;18.77;12.70;;;;;;;20.76;80.75;100499.94;5028572;28;20587;-69
2022/08/05 02:59:05;;;;;;;24.00;12.80;;;;;;;20.72;81.30;100525.63;5025459;28;20205;-69
2022/08/05 03:01:35;;;;;;;23.47;13.20;;;;;;;20.69;81.87;100537.63;5026670;28;20240;-69
2022/08/05 03:04:05;;;;;;;19.63;12.10;;;;;;;20.68;82.59;100549.47;5024298;28;20259;-70
2022/08/05 03:06:35;;;;;;;19.47;12.83;;;;;;;20.67;83.12;100577.53;5021737;28;20211;-71
2022/08/05 03:09:02;;;;;;;19.63;12.50;;;;;;;20.68;83.47;100600.03;5022880;28;20214;-69
2022/08/05 03:11:28;;;;;;;27.63;13.00;;;;;;;20.66;83.95;100586.66;5024509;28;20205;-70
2022/08/05 03:13:55;;;;;;;21.27;13.43;;;;;;;20.64;83.90;100568.91;5020956;28;20230;-69
2022/08/05 03:16:22;;;;;;;25.00;13.67;;;;;;;20.61;84.10;100559.25;5023626;28;20220;-70
2022/08/05 03:18:49;;;;;;;19.63;12.87;;;;;;;20.61;84.69;100598.97;5020264;28;20214;-70
2022/08/05 03:21:16;;;;;;;22.47;12.37;;;;;;;20.60;84.50;100597.31;5024683;28;20224;-69
2022/08/05 03:23:45;;;;;;;18.70;11.97;;;;;;;20.60;84.83;100586.50;5022722;28;20237;-69
2022/08/05 03:26:12;;;;;;;22.73;12.27;;;;;;;20.62;84.83;100595.28;5023391;28;20223;-69
2022/08/05 03:28:38;;;;;;;21.27;12.63;;;;;;;20.64;85.23;100585.13;5017062;28;20669;-70
2022/08/05 03:31:05;;;;;;;16.00;11.77;;;;;;;20.67;85.64;100582.94;5024058;28;20393;-70
2022/08/05 03:33:32;;;;;;;19.07;11.77;;;;;;;20.70;85.74;100577.22;5025053;28;20633;-70
2022/08/05 03:35:59;;;;;;;22.00;12.30;;;;;;;20.70;85.34;100566.41;5024273;28;20214;-72
2022/08/05 03:38:27;;;;;;;16.97;11.20;;;;;;;20.70;85.06;100566.41;5023904;28;20211;-69
2022/08/05 03:40:55;;;;;;;15.83;11.20;;;;;;;20.69;85.01;100548.47;5022115;28;20226;-71
2022/08/05 03:43:24;;;;;;;20.70;11.60;;;;;;;20.67;84.70;100550.47;5026519;28;20252;-71
2022/08/05 03:45:52;;;;;;;17.90;10.93;;;;;;;20.64;84.85;100556.22;5019874;28;20773;-70
2022/08/05 03:48:19;;;;;;;14.40;9.97;;;;;;;20.65;85.15;100566.03;5026530;28;20211;-71
2022/08/05 03:50:53;;;;;;;14.63;9.17;;;;;;;20.65;84.69;100560.63;5023539;28;20720;-70
2022/08/05 03:53:28;;;;;;;16.33;9.80;;;;;;;20.68;85.21;100579.25;5026618;28;20228;-71
2022/08/05 03:56:02;;;;;;;17.93;9.93;;;;;;;20.70;85.47;100579.06;5025057;28;20209;-70
2022/08/05 03:58:30;;;;;;;14.13;9.87;;;;;;;20.71;85.15;100573.50;5026699;28;21097;-70
2022/08/05 04:00:59;;;;;;;12.00;10.07;;;;;;;20.66;84.79;100559.59;5027789;28;20742;-70
2022/08/05 04:03:28;;;;;;;15.90;9.03;;;;;;;20.62;84.88;100554.69;5025917;28;20736;-70
2022/08/05 04:05:56;;;;;;;16.03;8.93;;;;;;;20.59;85.14;100558.59;5024050;28;20230;-70
2022/08/05 04:08:23;;;;;;;14.10;10.07;;;;;;;20.60;85.11;100560.25;5024224;28;20685;-72
2022/08/05 04:10:50;;;;;;;11.17;8.70;;;;;;;20.61;85.17;100559.25;5022028;28;20656;-72
2022/08/05 04:13:20;;;;;;;12.43;9.20;;;;;;;20.61;85.10;100551.13;5022004;28;20309;-70
2022/08/05 04:15:47;;;;;;;15.07;9.57;;;;;;;20.60;84.91;100545.91;5029026;28;20667;-70
2022/08/05 04:18:14;;;;;;;14.90;9.50;;;;;;;20.57;84.74;100544.38;5029705;28;20240;-71
2022/08/05 04:20:41;;;;;;;13.93;10.33;;;;;;;20.56;85.18;100542.69;5029950;28;20265;-69
2022/08/05 04:23:08;;;;;;;17.10;9.77;;;;;;;20.56;84.87;100545.38;5031981;28;20740;-69
2022/08/05 04:25:35;;;;;;;13.60;9.57;;;;;;;20.56;85.35;100542.69;5032925;28;20233;-69
2022/08/05 04:28:02;;;;;;;13.27;9.70;;;;;;;20.58;85.24;100545.22;5030813;28;20290;-69
2022/08/05 04:30:30;;;;;;;12.53;9.97;;;;;;;20.59;85.38;100555.88;5028853;28;20635;-69
2022/08/05 04:32:56;;;;;;;14.33;9.57;;;;;;;20.61;85.42;100559.25;5031984;28;20229;-69
2022/08/05 04:35:23;;;;;;;16.57;10.10;;;;;;;20.62;85.03;100568.22;5026489;28;20205;-69
2022/08/05 04:37:50;;;;;;;15.90;11.50;;;;;;;20.60;85.13;100562.16;5027345;28;20305;-70
2022/08/05 04:40:16;;;;;;;15.10;10.87;;;;;;;20.58;85.12;100565.00;5025228;28;20202;-69
2022/08/05 04:42:43;;;;;;;18.17;11.27;;;;;;;20.56;85.22;100571.59;5027587;28;20800;-69
2022/08/05 04:45:10;;;;;;;14.57;11.73;;;;;;;20.51;85.34;100568.53;5026416;28;20320;-70
2022/08/05 04:47:38;;;;;;;17.87;11.83;;;;;;;20.47;85.81;100569.84;5028646;28;20213;-68
2022/08/05 04:50:06;;;;;;;19.93;12.83;;;;;;;20.44;86.15;100582.69;5023799;28;20221;-70
2022/08/05 04:52:32;;;;;;;17.83;13.60;;;;;;;20.43;86.14;100585.56;5025909;28;20222;-69
2022/08/05 04:54:59;;;;;;;20.83;14.20;;;;;;;20.41;86.37;100595.72;5019936;28;20339;-71
2022/08/05 04:57:26;;;;;;;22.87;14.03;;;;;;;20.37;86.55;100602.44;5035849;28;20696;-69
2022/08/05 04:59:52;;;;;;;27.77;15.30;;;;;;;20.34;86.34;100622.50;5035686;28;20220;-69
2022/08/05 05:02:19;;;;;;;21.07;14.53;;;;;;;20.31;87.06;100613.88;5023841;28;20610;-69
2022/08/05 05:04:47;;;;;;;24.17;14.87;;;;;;;20.31;87.50;100612.00;5026710;28;20235;-69
2022/08/05 05:07:14;;;;;;;23.00;15.87;;;;;;;20.28;87.42;100615.03;5034992;28;20298;-70
2022/08/05 05:09:41;;;;;;;22.67;14.13;;;;;;;20.25;87.82;100604.53;5019208;28;20296;-69
2022/08/05 05:12:08;;;;;;;22.43;13.90;;;;;;;20.25;88.13;100599.13;5017031;28;20216;-69
2022/08/05 05:14:34;;;;;;;22.23;15.03;;;;;;;20.24;88.14;100602.88;5024733;28;20216;-70
2022/08/05 05:17:01;;;;;;;20.47;15.20;;;;;;;20.23;88.52;100608.44;5018724;28;20233;-70
2022/08/05 05:19:28;;;;;;;19.50;13.97;;;;;;;20.24;88.65;100610.97;5026617;28;20369;-69
2022/08/05 05:21:56;;;;;;;25.47;14.47;;;;;;;20.26;88.98;100613.50;5026068;28;20650;-69
2022/08/05 05:24:22;;;;;;;19.27;13.23;;;;;;;20.27;89.03;100632.25;5025115;28;20500;-69
2022/08/05 05:26:49;;;;;;;24.40;15.03;;;;;;;20.28;89.27;100623.16;5022293;28;20253;-71
2022/08/05 05:29:16;;;;;;;23.23;14.97;;;;;;;20.28;89.10;100630.41;5021963;28;20295;-70
2022/08/05 05:31:43;;;;;;;23.50;14.53;;;;;;;20.27;89.15;100632.25;5031519;28;20216;-69
2022/08/05 05:34:09;;;;;;;20.37;14.30;;;;;;;20.26;89.20;100624.31;5069003;22;20290;-72
2022/08/05 05:36:36;;;;;;;23.23;13.63;;;;;;;20.28;88.96;100619.59;5058998;28;20204;-70
2022/08/05 05:39:04;;;;;;;20.07;13.20;;;;;;;20.26;88.73;100617.03;5060158;28;20220;-71
2022/08/05 05:41:31;;;;;;;19.63;12.90;;;;;;;20.28;89.02;100611.47;5058542;28;20200;-71
2022/08/05 05:43:57;;;;;;;19.93;14.17;;;;;;;20.32;89.02;100620.97;5057089;28;20690;-71
2022/08/05 05:46:24;;;;;;;20.90;14.37;;;;;;;20.36;89.08;100622.34;5059180;28;20571;-72
2022/08/05 05:48:50;;;;;;;24.83;14.40;;;;;;;20.43;89.08;100629.69;5059375;28;20215;-71
2022/08/05 05:51:21;;;;;;;21.07;13.27;;;;;;;20.52;89.15;100630.59;5059681;28;20221;-72
2022/08/05 05:53:48;;;;;;;21.60;13.93;;;;;;;20.56;88.67;100631.13;5063978;28;20296;-70
2022/08/05 05:56:16;;;;;;;20.90;14.13;;;;;;;20.58;88.32;100635.38;5061777;28;20661;-70
2022/08/05 05:58:42;;;;;;;19.73;13.87;;;;;;;20.57;87.75;100639.06;5061629;28;20214;-71
2022/08/05 06:01:09;;;;;;;20.63;14.70;;;;;;;20.56;87.52;100650.06;5060052;28;20307;-70
2022/08/05 06:03:36;;;;;;;21.33;14.43;;;;;;;20.54;87.43;100663.75;5056677;28;20223;-70
2022/08/05 06:06:05;;;;;;;24.73;14.87;;;;;;;20.55;87.17;100683.53;5056433;28;20220;-71
2022/08/05 06:08:32;;;;;;;24.20;15.23;;;;;;;20.52;87.27;100711.75;5059114;28;20261;-70
2022/08/05 06:10:58;;;;;;;24.50;14.27;;;;;;;20.52;87.08;100736.09;5058869;28;20293;-72
2022/08/05 06:13:26;;;;;;;22.43;14.60;;;;;;;20.49;87.02;100768.88;5060811;28;20230;-69
2022/08/05 06:15:53;;;;;;;23.20;13.97;;;;;;;20.47;87.01;100797.94;5057681;28;20692;-68
2022/08/05 06:18:19;;;;;;;21.73;13.37;;;;;;;20.45;87.09;100805.38;5059631;28;20212;-68
2022/08/05 06:20:46;;;;;;;20.93;14.07;;;;;;;20.40;87.22;100791.50;5061829;28;20210;-68
2022/08/05 06:23:13;;;;;;;22.27;15.33;;;;;;;20.32;87.21;100783.25;5057994;28;20220;-68
2022/08/05 06:25:39;;;;;;;20.03;14.33;;;;;;;20.25;87.54;100788.44;5055681;28;20230;-68
2022/08/05 06:28:06;;;;;;;18.03;13.83;;;;;;;20.20;87.63;100766.44;5062213;28;20208;-67
2022/08/05 06:30:34;;;;;;;25.63;15.50;;;;;;;20.16;88.32;100765.06;5062901;28;20238;-67
2022/08/05 06:33:00;;;;;;;20.67;16.17;;;;;;;20.14;88.71;100752.69;5057849;28;20239;-68
2022/08/05 06:35:27;;;;;;;17.90;14.27;;;;;;;20.10;88.61;100734.06;5060490;28;20831;-69
2022/08/05 06:37:53;;;;;;;22.97;13.60;;;;;;;20.03;88.32;100702.41;5060036;28;20212;-69
2022/08/05 06:40:23;;;;;;;17.13;14.13;;;;;;;19.95;88.16;100678.84;5062247;28;20205;-68
2022/08/05 06:42:50;;;;;;;15.67;12.67;;;;;;;19.89;88.53;100665.97;5060791;28;20231;-68
2022/08/05 06:45:16;;;;;;;16.97;13.53;;;;;;;19.83;88.56;100645.00;5052939;28;20769;-69
2022/08/05 06:47:44;;;;;;;22.17;13.80;;;;;;;19.81;89.07;100648.84;5055956;28;20207;-68
2022/08/05 06:50:11;;;;;;;14.20;12.70;;;;;;;19.79;89.40;100643.59;5055158;28;20674;-68
2022/08/05 06:52:37;;;;;;;18.80;13.33;;;;;;;19.77;89.30;100618.56;5060950;28;20761;-67
2022/08/05 06:55:05;;;;;;;15.40;12.00;;;;;;;19.76;89.71;100609.63;5057697;28;20220;-67
2022/08/05 06:57:32;;;;;;;17.83;11.87;;;;;;;19.74;89.94;100606.22;5061244;28;20262;-67
2022/08/05 06:59:59;;;;;;;15.87;12.53;;;;;;;19.74;90.09;100611.63;5056305;28;20281;-66
2022/08/05 07:02:26;;;;;;;16.83;11.83;;;;;;;19.74;90.23;100608.06;5058158;28;20203;-68
2022/08/05 07:04:54;;;;;;;13.50;11.27;;;;;;;19.69;90.41;100600.47;5058974;28;20198;-68
2022/08/05 07:07:21;;;;;;;12.47;11.17;;;;;;;19.68;90.55;100601.47;5058636;28;20217;-69
2022/08/05 07:09:48;;;;;;;14.23;10.57;;;;;;;19.69;90.96;100602.31;5059269;28;20222;-68
2022/08/05 07:17:40;;;;;;;11.30;9.17;;;;;;;19.75;91.97;100609.78;5055294;28;20250;-69
2022/08/05 07:20:08;;;;;;;12.37;9.40;;;;;;;19.79;92.24;100623.81;5055444;28;20744;-69
2022/08/05 07:22:35;;;;;;;10.80;9.30;;;;;;;19.81;92.49;100628.06;5056330;28;21145;-71
2022/08/05 07:25:02;;;;;;;12.00;9.23;;;;;;;19.86;91.99;100622.22;5056451;28;20295;-70
2022/08/05 07:27:31;;;;;;;12.00;9.07;;;;;;;19.91;92.02;100609.03;5055145;28;20204;-68
2022/08/05 07:29:58;;;;;;;12.90;9.67;;;;;;;19.94;91.99;100617.69;5060326;28;20216;-68
2022/08/05 07:32:24;;;;;;;11.10;9.93;;;;;;;19.99;92.37;100609.13;5060522;28;20214;-69
2022/08/05 07:34:52;;;;;;;10.03;8.30;;;;;;;20.07;92.38;100615.41;5054687;28;20679;-70
2022/08/05 07:37:20;;;;;;;9.20;7.90;;;;;;;20.13;92.15;100627.44;5055017;28;20679;-69
2022/08/05 07:39:47;;;;;;;13.53;9.27;;;;;;;20.20;92.48;100635.78;5055963;28;20293;-69
2022/08/05 07:42:14;;;;;;;10.47;9.37;;;;;;;20.26;92.47;100643.25;5058898;28;20240;-70
2022/08/05 07:44:41;;;;;;;11.83;8.07;;;;;;;20.32;92.24;100653.44;5063629;28;20230;-70
2022/08/05 07:47:08;;;;;;;8.63;7.53;;;;;;;20.35;91.52;100653.13;5053475;28;20223;-69
2022/08/05 07:49:35;;;;;;;9.37;8.37;;;;;;;20.35;91.21;100645.00;5059239;28;20203;-70
2022/08/05 07:52:01;;;;;;;9.67;7.97;;;;;;;20.37;91.27;100643.88;5057627;28;20207;-69
2022/08/05 07:54:29;;;;;;;10.17;8.43;;;;;;;20.39;90.99;100627.47;5061207;28;20304;-71
2022/08/05 07:56:56;;;;;;;9.17;8.00;;;;;;;20.40;90.79;100629.19;5060006;28;20639;-71
2022/08/05 07:59:23;;;;;;;9.73;7.37;;;;;;;20.40;90.25;100607.53;5053268;28;20589;-70
2022/08/05 08:01:50;;;;;;;8.13;7.27;;;;;;;20.41;89.99;100611.94;5050256;28;20196;-70
2022/08/05 08:04:16;;;;;;;9.30;7.30;;;;;;;20.42;90.07;100605.53;5054849;28;20237;-71
2022/08/05 08:06:44;;;;;;;6.97;5.80;;;;;;;20.43;89.89;100618.88;5057762;28;20240;-71
2022/08/05 08:09:10;;;;;;;8.47;6.07;;;;;;;20.43;89.54;100631.53;5057690;28;20219;-71
2022/08/05 08:11:38;;;;;;;7.53;6.83;;;;;;;20.42;89.09;100644.22;5061085;28;20285;-71
2022/08/05 08:14:05;;;;;;;7.97;6.00;;;;;;;20.38;89.02;100653.69;5058067;28;20230;-70
2022/08/05 08:16:31;;;;;;;8.87;7.97;;;;;;;20.37;88.81;100654.69;5055928;28;20215;-71
2022/08/05 08:18:58;;;;;;;11.03;8.47;;;;;;;20.35;88.84;100653.97;5061916;28;20203;-71
2022/08/05 08:21:25;;;;;;;8.37;7.53;;;;;;;20.34;88.66;100646.00;5057615;28;20301;-71
2022/08/05 08:23:51;;;;;;;8.00;7.20;;;;;;;20.34;88.40;100662.25;5059429;28;20226;-71
2022/08/05 08:26:18;;;;;;;7.43;6.20;;;;;;;20.33;88.04;100661.38;5060467;28;20228;-71
2022/08/05 08:28:46;;;;;;;8.43;6.63;;;;;;;20.32;87.96;100661.53;5058434;28;20202;-71
2022/08/05 08:31:12;;;;;;;8.40;7.57;;;;;;;20.33;87.97;100652.44;5061817;28;20261;-71
2022/08/05 08:33:39;;;;;;;7.90;7.07;;;;;;;20.34;87.60;100627.94;5058601;28;20246;-71
2022/08/05 08:36:07;;;;;;;9.43;8.53;;;;;;;20.32;87.08;100631.78;5059399;28;20208;-71
2022/08/05 08:38:33;;;;;;;9.73;8.73;;;;;;;20.29;86.91;100660.00;5059063;28;20212;-72
2022/08/05 08:41:04;;;;;;;9.77;8.83;;;;;;;20.26;86.73;100675.69;5056312;28;20208;-71
2022/08/05 08:43:32;;;;;;;9.57;8.67;;;;;;;20.25;86.80;100687.53;5057452;28;20232;-72
2022/08/05 08:46:01;;;;;;;10.13;8.43;;;;;;;20.23;86.54;100687.72;5061183;28;20236;-72
2022/08/05 08:48:31;;;;;;;9.87;8.80;;;;;;;20.21;86.38;100686.16;5062210;28;20666;-72
2022/08/05 08:50:59;;;;;;;9.80;8.80;;;;;;;20.19;86.29;100682.75;5060363;28;20207;-72
2022/08/05 08:53:28;;;;;;;9.67;8.17;;;;;;;20.16;86.12;100675.81;5058394;28;20251;-72
2022/08/05 08:55:55;;;;;;;9.23;7.33;;;;;;;20.14;86.14;100685.09;5059913;28;20219;-72
2022/08/05 08:58:22;;;;;;;8.63;7.73;;;;;;;20.15;85.85;100684.94;5055101;28;20209;-72
2022/08/05 09:00:50;;;;;;;6.77;6.03;;;;;;;20.14;85.76;100696.75;5062142;28;20209;-73
2022/08/05 09:03:20;;;;;;;8.87;5.97;;;;;;;20.13;85.55;100695.06;5061264;28;20225;-73
2022/08/05 09:05:48;;;;;;;8.30;5.90;;;;;;;20.12;85.33;100709.56;5066491;28;20230;-72
2022/08/05 09:08:15;;;;;;;8.77;6.00;;;;;;;20.11;84.91;100716.84;5068016;28;20219;-73
2022/08/05 09:10:43;;;;;;;7.07;5.73;;;;;;;20.13;84.90;100715.84;5069939;28;20625;-73
2022/08/05 09:13:10;;;;;;;8.03;6.23;;;;;;;20.13;84.93;100713.13;5064371;28;20696;-72
2022/08/05 09:15:38;;;;;;;8.37;6.10;;;;;;;20.13;84.87;100713.13;5068679;28;20577;-73
2022/08/05 09:18:07;;;;;;;9.97;7.00;;;;;;;20.13;84.87;100715.84;5067794;28;20203;-73
2022/08/05 09:20:35;;;;;;;9.00;6.00;;;;;;;20.13;84.81;100716.69;5058118;28;20212;-73
2022/08/05 09:23:10;;;;;;;8.60;7.00;;;;;;;20.15;84.84;100728.19;5063463;28;20380;-72
2022/08/05 09:25:39;;;;;;;8.77;6.83;;;;;;;20.17;84.59;100723.47;5063800;28;20281;-72
2022/08/05 09:28:10;;;;;;;8.87;6.93;;;;;;;20.18;84.58;100721.63;5059202;28;20623;-72
2022/08/05 09:30:37;;;;;;;8.80;7.97;;;;;;;20.18;84.37;100727.03;5054792;28;20210;-72
2022/08/05 09:33:04;;;;;;;13.30;8.70;;;;;;;20.16;84.04;100734.44;5064076;28;20254;-72
2022/08/05 09:35:31;;;;;;;10.97;9.87;;;;;;;20.15;83.89;100732.75;5060025;28;20212;-72
2022/08/05 09:37:58;;;;;;;11.73;10.00;;;;;;;20.11;83.88;100727.66;5064427;28;20584;-72
2022/08/05 09:40:32;;;;;;;10.93;10.03;;;;;;;20.08;83.69;100729.81;5065196;28;20322;-72
2022/08/05 09:43:00;;;;;;;13.23;11.27;;;;;;;20.05;83.70;100740.97;5061445;28;20242;-72
2022/08/05 09:45:38;;;;;;;12.37;11.10;;;;;;;20.02;83.32;100749.38;5062289;28;20299;-72
2022/08/05 09:48:25;;;;;;;12.03;10.87;;;;;;;20.00;83.31;100752.25;5058923;28;20235;-71
2022/08/05 09:50:53;;;;;;;11.60;10.50;;;;;;;19.98;83.55;100751.53;5068809;28;20248;-71
2022/08/05 09:53:21;;;;;;;12.93;10.70;;;;;;;19.98;83.58;100753.41;5062953;28;20217;-72
2022/08/05 09:55:52;;;;;;;12.27;10.80;;;;;;;19.96;83.49;100750.84;5063047;28;20239;-72
2022/08/05 09:58:18;;;;;;;14.30;11.03;;;;;;;19.97;83.48;100757.09;5058883;28;20210;-71
2022/08/05 10:00:57;;;;;;;14.03;11.63;;;;;;;19.97;83.76;100755.25;5063905;28;20207;-72
2022/08/05 10:03:24;;;;;;;12.73;11.13;;;;;;;19.96;83.56;100756.25;5059509;28;20314;-71
2022/08/05 10:06:01;;;;;;;12.03;10.93;;;;;;;19.96;83.38;100761.66;5064873;28;20215;-71
2022/08/05 10:08:29;;;;;;;13.00;11.40;;;;;;;19.95;83.34;100759.97;5058164;28;20212;-71
2022/08/05 10:10:56;;;;;;;13.60;12.17;;;;;;;19.93;83.21;100759.25;5056564;28;20224;-72
2022/08/05 10:13:27;;;;;;;12.57;11.47;;;;;;;19.96;83.40;100758.09;5057484;28;20216;-72
2022/08/05 10:15:56;;;;;;;11.37;10.27;;;;;;;19.96;83.36;100756.25;5057488;28;20218;-71
2022/08/05 10:18:25;;;;;;;11.37;10.17;;;;;;;19.97;83.20;100757.94;5053628;28;20228;-72
2022/08/05 10:20:54;;;;;;;10.73;9.47;;;;;;;19.95;83.09;100754.56;5056511;28;20227;-72
2022/08/05 10:23:23;;;;;;;12.80;9.47;;;;;;;19.95;83.14;100751.00;5060344;28;20227;-72
2022/08/05 10:25:51;;;;;;;12.00;9.37;;;;;;;19.94;82.88;100758.25;5057622;28;20713;-72
2022/08/05 10:28:18;;;;;;;9.83;8.83;;;;;;;19.92;83.01;100762.97;5062898;28;20685;-73
2022/08/05 10:30:45;;;;;;;10.13;9.13;;;;;;;19.96;83.25;100760.81;5054883;28;20230;-72
2022/08/05 10:33:12;;;;;;;11.07;9.97;;;;;;;19.97;83.49;100755.25;5055032;28;20235;-72
2022/08/05 10:35:39;;;;;;;10.63;9.43;;;;;;;19.97;83.22;100744.44;5065745;28;20230;-71
2022/08/05 10:38:06;;;;;;;10.53;9.53;;;;;;;19.99;83.15;100745.13;5055662;28;20281;-72
2022/08/05 10:40:38;;;;;;;11.27;9.60;;;;;;;20.01;82.96;100758.50;5057692;28;20209;-71
2022/08/05 10:43:17;;;;;;;11.57;9.40;;;;;;;19.99;82.44;100765.91;5061518;28;20283;-73
2022/08/05 10:45:55;;;;;;;11.07;9.93;;;;;;;19.98;82.59;100773.16;5062635;28;20669;-73
2022/08/05 10:48:30;;;;;;;12.27;10.20;;;;;;;20.01;82.61;100808.00;5065098;28;20581;-73
2022/08/05 10:50:58;;;;;;;11.60;9.10;;;;;;;20.00;82.45;100809.00;5064204;28;20285;-75
2022/08/05 10:53:37;;;;;;;11.67;9.30;;;;;;;19.99;82.27;100792.94;5061603;28;20232;-73
2022/08/05 10:56:06;;;;;;;9.97;9.07;;;;;;;19.99;82.43;100793.78;5059708;28;20232;-73
2022/08/05 10:58:34;;;;;;;10.90;9.37;;;;;;;20.00;82.47;100805.47;5061077;28;20229;-73
2022/08/05 11:01:04;;;;;;;8.87;7.97;;;;;;;19.98;82.57;100802.06;5060875;28;20227;-73
2022/08/05 11:03:31;;;;;;;7.63;6.83;;;;;;;19.93;82.78;100807.91;5067889;28;20313;-72
2022/08/05 11:06:11;;;;;;;7.33;6.60;;;;;;;19.90;82.90;100805.50;5060511;28;20303;-73
2022/08/05 11:08:38;;;;;;;5.30;4.80;;;;;;;19.86;82.31;100812.25;5064910;28;20206;-73
2022/08/05 11:11:35;;;;;;;7.23;4.47;;;;;;;19.81;82.14;100819.97;5066311;28;20662;-72
2022/08/05 11:14:05;;;;;;;5.10;3.37;;;;;;;19.72;81.02;100823.56;5046097;28;20282;-74
2022/08/05 11:16:31;;;;;;;6.03;3.47;;;;;;;19.62;80.31;100829.03;5063460;28;20215;-74
2022/08/05 11:19:27;;;;;;;4.00;3.23;;;;;;;19.55;80.08;100833.34;5056611;28;20208;-74
2022/08/05 11:21:55;;;;;;;4.23;2.83;;;;;;;19.50;79.22;100840.22;5054583;28;20859;-72
2022/08/05 11:24:22;;;;;;;7.57;3.40;;;;;;;19.46;78.89;100838.75;5058106;28;20224;-72
2022/08/05 11:26:50;;;;;;;5.77;2.40;;;;;;;19.42;78.14;100833.66;5060750;28;20235;-74
2022/08/05 11:29:39;;;;;;;3.93;3.03;;;;;;;19.38;77.51;100834.09;5054920;28;20294;-72